createdAt,value
2023-02-27T00:01:58.940Z,0.00
2023-02-27T00:04:27.171Z,1.50
2023-02-27T00:06:58.468Z,-0.10
2023-02-27T00:09:26.957Z,0.70
2023-02-27T00:11:55.255Z,0.50
2023-02-27T00:14:23.608Z,1.10
2023-02-27T00:16:52.006Z,0.00
2023-02-27T00:19:21.722Z,0.00
2023-02-27T00:21:51.377Z,0.50
2023-02-27T00:24:22.474Z,0.40
2023-02-27T00:26:50.842Z,1.30
2023-02-27T00:29:19.815Z,1.10
2023-02-27T00:31:53.400Z,0.20
2023-02-27T00:34:21.724Z,0.20
2023-02-27T00:36:49.915Z,0.50
2023-02-27T00:39:18.114Z,0.10
2023-02-27T00:41:47.775Z,0.30
2023-02-27T00:44:16.017Z,0.40
2023-02-27T00:46:44.246Z,0.10
2023-02-27T00:49:14.073Z,0.00
2023-02-27T00:51:42.441Z,0.90
2023-02-27T00:54:10.760Z,0.30
2023-02-27T00:56:38.996Z,-0.20
2023-02-27T00:59:09.038Z,0.30
2023-02-27T01:01:37.728Z,0.40
2023-02-27T01:04:06.038Z,0.30
2023-02-27T01:06:34.325Z,-0.40
2023-02-27T01:09:02.658Z,0.10
2023-02-27T01:11:31.266Z,-0.20
2023-02-27T01:14:01.801Z,0.20
2023-02-27T01:16:31.856Z,0.40
2023-02-27T01:19:00.209Z,0.20
2023-02-27T01:21:28.644Z,-0.20
2023-02-27T01:23:57.145Z,0.10
2023-02-27T01:26:25.360Z,-0.20
2023-02-27T01:28:55.170Z,0.30
2023-02-27T01:31:23.587Z,0.40
2023-02-27T01:33:53.381Z,0.10
2023-02-27T01:36:22.269Z,0.00
2023-02-27T01:38:50.581Z,0.00
2023-02-27T01:41:19.101Z,0.00
2023-02-27T01:44:00.143Z,1.40
2023-02-27T01:46:29.804Z,-0.20
2023-02-27T01:49:03.284Z,1.50
2023-02-27T01:51:35.680Z,0.00
2023-02-27T01:54:07.140Z,0.30
2023-02-27T01:56:35.654Z,0.30
2023-02-27T01:59:08.831Z,1.10
2023-02-27T02:01:38.972Z,0.30
2023-02-27T02:04:13.906Z,0.20
2023-02-27T02:06:46.429Z,0.90
2023-02-27T02:09:17.307Z,0.20
2023-02-27T02:11:46.067Z,0.20
2023-02-27T02:14:18.706Z,-0.10
2023-02-27T02:17:01.700Z,0.20
2023-02-27T02:20:07.634Z,0.20
2023-02-27T02:23:23.791Z,0.20
2023-02-27T02:26:36.419Z,0.20
2023-02-27T02:29:55.714Z,0.20
2023-02-27T02:32:57.626Z,0.30
2023-02-27T02:35:55.680Z,0.20
2023-02-27T02:38:57.320Z,0.20
2023-02-27T02:41:34.113Z,0.10
2023-02-27T02:44:08.831Z,0.10
2023-02-27T02:46:48.056Z,0.90
2023-02-27T02:49:22.225Z,0.20
2023-02-27T02:52:02.497Z,-0.30
2023-02-27T02:54:39.506Z,-0.20
2023-02-27T02:57:13.444Z,0.50
2023-02-27T02:59:49.742Z,0.10
2023-02-27T03:02:22.099Z,0.30
2023-02-27T03:04:54.688Z,-0.10
2023-02-27T03:07:29.852Z,0.20
2023-02-27T03:10:05.653Z,-0.10
2023-02-27T03:12:35.036Z,-0.20
2023-02-27T03:15:07.186Z,0.20
2023-02-27T03:17:41.470Z,-0.30
2023-02-27T03:20:16.368Z,1.00
2023-02-27T03:22:49.838Z,-0.50
2023-02-27T03:25:21.074Z,-0.50
2023-02-27T03:27:57.389Z,-0.30
2023-02-27T03:30:31.055Z,-0.30
2023-02-27T03:33:06.572Z,-0.20
2023-02-27T03:35:44.844Z,-0.30
2023-02-27T03:38:20.200Z,-0.10
2023-02-27T03:40:58.177Z,0.30
2023-02-27T03:43:45.979Z,-0.40
2023-02-27T03:46:16.952Z,-0.50
2023-02-27T03:48:46.550Z,-0.60
2023-02-27T03:51:17.719Z,-0.30
2023-02-27T03:53:52.084Z,-0.10
2023-02-27T03:56:26.234Z,-0.10
2023-02-27T03:58:55.167Z,0.50
2023-02-27T04:01:23.802Z,-0.20
2023-02-27T04:03:56.865Z,-0.10
2023-02-27T04:07:19.712Z,-0.20
2023-02-27T04:10:10.791Z,-0.30
2023-02-27T04:13:00.862Z,-0.30
2023-02-27T04:15:40.303Z,-0.50
2023-02-27T04:18:18.696Z,-0.30
2023-02-27T04:20:52.259Z,-0.30
2023-02-27T04:23:25.121Z,-0.30
2023-02-27T04:26:06.047Z,-0.50
2023-02-27T04:28:44.410Z,-0.80
2023-02-27T04:31:19.295Z,-0.40
2023-02-27T04:33:53.013Z,0.20
2023-02-27T04:36:28.347Z,-0.20
2023-02-27T04:39:04.659Z,-0.10
2023-02-27T04:41:39.451Z,-0.20
2023-02-27T04:44:11.557Z,-0.10
2023-02-27T04:46:42.975Z,-0.30
2023-02-27T04:49:17.246Z,-0.30
2023-02-27T04:51:52.460Z,0.20
2023-02-27T04:54:27.053Z,-0.40
2023-02-27T04:56:59.006Z,-0.20
2023-02-27T04:59:31.977Z,0.30
2023-02-27T05:02:03.833Z,-0.50
2023-02-27T05:04:36.757Z,-0.20
2023-02-27T05:07:07.262Z,-0.30
2023-02-27T05:09:42.271Z,0.00
2023-02-27T05:12:17.332Z,0.00
2023-02-27T05:14:53.073Z,0.00
2023-02-27T05:17:26.511Z,-0.80
2023-02-27T05:19:54.710Z,-0.40
2023-02-27T05:22:30.407Z,-0.60
2023-02-27T05:25:04.048Z,-0.40
2023-02-27T05:27:40.078Z,-0.60
2023-02-27T05:30:21.220Z,-0.60
2023-02-27T05:32:54.730Z,-1.10
2023-02-27T05:35:29.242Z,-0.60
2023-02-27T05:38:05.868Z,-0.70
2023-02-27T05:40:37.069Z,-0.90
2023-02-27T05:43:08.768Z,0.20
2023-02-27T05:45:41.899Z,-1.10
2023-02-27T05:48:13.262Z,0.60
2023-02-27T05:50:43.368Z,-0.40
2023-02-27T05:53:15.454Z,-0.60
2023-02-27T05:55:48.459Z,-0.60
2023-02-27T05:58:22.164Z,-0.70
2023-02-27T06:00:55.827Z,0.70
2023-02-27T06:03:24.277Z,-1.10
2023-02-27T06:05:54.390Z,0.00
2023-02-27T06:08:25.013Z,0.70
2023-02-27T06:10:55.210Z,-0.40
2023-02-27T06:13:23.867Z,-1.10
2023-02-27T06:15:54.249Z,-0.80
2023-02-27T06:18:23.104Z,-1.10
2023-02-27T06:20:51.887Z,-0.90
2023-02-27T06:23:20.630Z,0.60
2023-02-27T06:25:50.190Z,-0.60
2023-02-27T06:28:18.644Z,-1.10
2023-02-27T06:30:47.007Z,-0.70
2023-02-27T06:33:16.788Z,-0.30
2023-02-27T06:35:45.868Z,1.30
2023-02-27T06:38:14.231Z,-0.30
2023-02-27T06:40:42.571Z,-0.40
2023-02-27T06:43:11.327Z,-0.30
2023-02-27T06:45:40.348Z,-0.30
2023-02-27T06:48:08.595Z,-0.40
2023-02-27T06:50:38.268Z,-0.70
2023-02-27T06:53:07.091Z,-0.80
2023-02-27T06:55:35.520Z,-0.40
2023-02-27T06:58:03.849Z,-0.50
2023-02-27T07:00:32.101Z,0.70
2023-02-27T07:03:01.525Z,-1.00
2023-02-27T07:05:29.749Z,-0.30
2023-02-27T07:07:59.816Z,-0.20
2023-02-27T07:10:28.092Z,-0.80
2023-02-27T07:12:56.353Z,-0.50
2023-02-27T07:15:24.799Z,-1.30
2023-02-27T07:17:54.402Z,-0.40
2023-02-27T07:20:22.793Z,-0.70
2023-02-27T07:22:51.147Z,-0.60
2023-02-27T07:25:20.994Z,-1.30
2023-02-27T07:27:50.908Z,-0.80
2023-02-27T07:30:19.854Z,-0.50
2023-02-27T07:32:48.444Z,-0.50
2023-02-27T07:35:17.151Z,0.00
2023-02-27T07:37:45.442Z,-0.70
2023-02-27T07:40:14.445Z,-0.50
2023-02-27T07:42:44.114Z,-0.50
2023-02-27T07:45:12.893Z,-0.20
2023-02-27T07:47:41.102Z,-1.10
2023-02-27T07:50:14.058Z,-0.10
2023-02-27T07:52:42.920Z,-0.60
2023-02-27T07:55:13.007Z,0.10
2023-02-27T07:57:43.129Z,0.20
2023-02-27T08:00:12.883Z,-0.70
2023-02-27T08:02:41.423Z,-0.30
2023-02-27T08:05:10.106Z,1.20
2023-02-27T08:07:38.357Z,-0.50
2023-02-27T08:10:07.738Z,-0.80
2023-02-27T08:12:36.102Z,-0.10
2023-02-27T08:15:07.269Z,0.70
2023-02-27T08:17:35.632Z,-0.20
2023-02-27T08:20:05.184Z,-0.70
2023-02-27T08:22:33.647Z,0.00
2023-02-27T08:25:02.348Z,-0.10
2023-02-27T08:27:30.759Z,1.10
2023-02-27T08:29:59.057Z,-0.70
2023-02-27T08:32:29.401Z,-0.50
2023-02-27T08:34:57.717Z,1.40
2023-02-27T08:37:26.080Z,0.00
2023-02-27T08:39:54.336Z,0.10
2023-02-27T08:42:22.754Z,1.10
2023-02-27T08:44:51.525Z,0.40
2023-02-27T08:47:20.089Z,2.10
2023-02-27T08:49:49.996Z,0.40
2023-02-27T08:52:18.372Z,0.90
2023-02-27T08:54:46.751Z,1.90
2023-02-27T08:57:15.040Z,0.40
2023-02-27T08:59:43.440Z,1.00
2023-02-27T09:02:11.863Z,0.50
2023-02-27T09:04:40.216Z,1.50
2023-02-27T09:07:09.875Z,0.40
2023-02-27T09:09:38.297Z,2.50
2023-02-27T09:12:07.103Z,1.60
2023-02-27T09:14:35.450Z,1.00
2023-02-27T09:17:03.808Z,1.40
2023-02-27T09:19:32.164Z,2.50
2023-02-27T09:22:00.472Z,0.80
2023-02-27T09:24:30.345Z,2.00
2023-02-27T09:26:58.654Z,1.50
2023-02-27T09:29:27.662Z,1.40
2023-02-27T09:31:56.116Z,1.90
2023-02-27T09:34:24.760Z,1.60
2023-02-27T09:36:53.254Z,2.40
2023-02-27T09:39:23.109Z,1.30
2023-02-27T09:42:00.688Z,2.50
2023-02-27T09:44:46.621Z,2.10
2023-02-27T09:47:20.237Z,0.40
2023-02-27T09:49:56.635Z,1.20
2023-02-27T09:52:25.142Z,1.20
2023-02-27T09:54:55.299Z,0.70
2023-02-27T09:57:40.336Z,2.00
2023-02-27T10:00:15.053Z,1.30
2023-02-27T10:02:55.694Z,1.20
2023-02-27T10:05:35.706Z,1.90
2023-02-27T10:08:13.082Z,2.20
2023-02-27T10:10:51.663Z,1.30
2023-02-27T10:13:37.787Z,1.90
2023-02-27T10:16:07.300Z,1.10
2023-02-27T10:18:41.190Z,3.10
2023-02-27T10:21:14.228Z,2.50
2023-02-27T10:23:46.802Z,1.70
2023-02-27T10:26:20.923Z,2.70
2023-02-27T10:28:50.897Z,2.20
2023-02-27T10:31:22.268Z,2.30
2023-02-27T10:33:52.182Z,2.10
2023-02-27T10:36:33.176Z,2.50
2023-02-27T10:39:08.162Z,2.60
2023-02-27T10:41:39.942Z,3.40
2023-02-27T10:44:15.762Z,2.40
2023-02-27T10:46:44.186Z,1.90
2023-02-27T10:49:19.020Z,2.80
2023-02-27T10:51:48.812Z,2.20
2023-02-27T10:54:25.146Z,2.50
2023-02-27T10:56:55.877Z,1.90
2023-02-27T10:59:28.495Z,2.10
2023-02-27T11:01:58.363Z,2.40
2023-02-27T11:04:35.745Z,3.30
2023-02-27T11:07:08.985Z,1.50
2023-02-27T11:09:38.253Z,2.20
2023-02-27T11:12:21.268Z,1.90
2023-02-27T11:14:53.894Z,3.10
2023-02-27T11:17:25.917Z,3.80
2023-02-27T11:19:54.225Z,2.80
2023-02-27T11:22:24.913Z,2.60
2023-02-27T11:24:54.102Z,0.80
2023-02-27T11:27:26.909Z,2.60
2023-02-27T11:30:01.991Z,3.10
2023-02-27T11:32:38.294Z,3.10
2023-02-27T11:35:20.125Z,3.10
2023-02-27T11:37:50.931Z,1.60
2023-02-27T11:40:21.257Z,1.30
2023-02-27T11:42:53.398Z,1.50
2023-02-27T11:46:05.316Z,1.70
2023-02-27T11:48:24.328Z,2.20
2023-02-27T11:51:28.012Z,1.70
2023-02-27T11:54:21.958Z,1.70
2023-02-27T11:56:55.020Z,1.70
2023-02-27T11:59:44.908Z,1.70
2023-02-27T12:02:23.695Z,1.40
2023-02-27T12:04:56.342Z,1.90
2023-02-27T12:07:27.722Z,1.60
2023-02-27T12:10:04.478Z,1.00
2023-02-27T12:12:38.719Z,2.90
2023-02-27T12:15:20.323Z,1.30
2023-02-27T12:17:54.175Z,1.60
2023-02-27T12:20:30.653Z,1.50
2023-02-27T12:22:59.288Z,1.40
2023-02-27T12:25:40.847Z,1.20
2023-02-27T12:28:20.081Z,1.50
2023-02-27T12:30:56.821Z,1.50
2023-02-27T12:33:37.395Z,2.40
2023-02-27T12:36:10.333Z,1.80
2023-02-27T12:38:39.110Z,0.90
2023-02-27T12:41:28.599Z,0.90
2023-02-27T12:44:08.366Z,0.60
2023-02-27T12:46:45.981Z,0.80
2023-02-27T12:49:30.030Z,0.40
2023-02-27T12:52:10.896Z,0.90
2023-02-27T12:54:48.856Z,0.50
2023-02-27T12:57:31.381Z,1.00
2023-02-27T13:00:10.118Z,0.90
2023-02-27T13:03:05.284Z,1.10
2023-02-27T13:05:40.719Z,1.20
2023-02-27T13:08:19.634Z,1.80
2023-02-27T13:10:52.658Z,1.60
2023-02-27T13:13:27.274Z,0.40
2023-02-27T13:15:59.599Z,0.90
2023-02-27T13:18:37.956Z,1.20
2023-02-27T13:21:13.848Z,1.50
2023-02-27T13:23:55.734Z,1.10
2023-02-27T13:26:28.188Z,2.40
2023-02-27T13:28:57.926Z,1.40
2023-02-27T13:31:39.066Z,2.10
2023-02-27T13:34:18.469Z,0.50
2023-02-27T13:36:52.317Z,1.10
2023-02-27T13:39:40.166Z,1.20
2023-02-27T13:42:41.709Z,1.30
2023-02-27T13:46:04.229Z,0.70
2023-02-27T13:48:52.188Z,0.70
2023-02-27T13:51:51.029Z,1.40
2023-02-27T13:54:41.313Z,1.10
2023-02-27T13:57:23.545Z,0.80
2023-02-27T14:00:21.580Z,0.30
2023-02-27T14:03:00.173Z,0.70
2023-02-27T14:05:36.469Z,0.50
2023-02-27T14:08:14.986Z,0.60
2023-02-27T14:10:55.491Z,1.60
2023-02-27T14:13:59.477Z,1.10
2023-02-27T14:17:00.132Z,0.70
2023-02-27T14:19:45.781Z,0.60
2023-02-27T14:22:40.143Z,0.30
2023-02-27T14:25:24.490Z,0.70
2023-02-27T14:27:57.233Z,0.70
2023-02-27T14:30:33.350Z,2.00
2023-02-27T14:33:12.762Z,1.30
2023-02-27T14:35:45.277Z,0.90
2023-02-27T14:38:19.800Z,0.20
2023-02-27T14:41:04.200Z,2.00
2023-02-27T14:43:39.465Z,0.80
2023-02-27T14:46:15.079Z,0.90
2023-02-27T14:48:43.530Z,0.80
2023-02-27T14:51:12.109Z,0.50
2023-02-27T14:53:40.864Z,0.30
2023-02-27T14:56:20.207Z,1.10
2023-02-27T14:59:03.621Z,0.10
2023-02-27T15:01:37.057Z,0.80
2023-02-27T15:04:08.102Z,0.50
2023-02-27T15:06:39.584Z,0.60
2023-02-27T15:09:08.546Z,0.70
2023-02-27T15:11:46.485Z,-0.10
2023-02-27T15:14:23.060Z,1.40
2023-02-27T15:16:56.543Z,1.20
2023-02-27T15:19:29.967Z,0.10
2023-02-27T15:21:59.931Z,0.60
2023-02-27T15:24:37.657Z,1.50
2023-02-27T15:27:17.743Z,0.30
2023-02-27T15:29:50.329Z,0.30
2023-02-27T15:32:26.304Z,0.00
2023-02-27T15:34:55.777Z,-0.20
2023-02-27T15:37:26.245Z,0.20
2023-02-27T15:39:55.500Z,-0.10
2023-02-27T15:42:29.184Z,0.00
2023-02-27T15:44:58.555Z,0.90
2023-02-27T15:47:28.513Z,-0.70
2023-02-27T15:50:00.927Z,-0.50
2023-02-27T15:52:38.694Z,0.20
2023-02-27T15:55:14.928Z,-0.60
2023-02-27T15:57:56.447Z,-0.10
2023-02-27T16:00:32.303Z,0.10
2023-02-27T16:03:01.433Z,0.10
2023-02-27T16:05:35.891Z,0.80
2023-02-27T16:08:04.695Z,0.80
2023-02-27T16:10:38.207Z,0.30
2023-02-27T16:13:23.652Z,-0.10
2023-02-27T16:16:03.544Z,-0.10
2023-02-27T16:18:37.659Z,-0.20
2023-02-27T16:21:14.717Z,-0.40
2023-02-27T16:23:43.962Z,-0.30
2023-02-27T16:26:28.435Z,0.60
2023-02-27T16:29:02.728Z,-0.80
2023-02-27T16:31:33.830Z,-0.30
2023-02-27T16:34:04.360Z,-0.50
2023-02-27T16:36:34.122Z,-0.40
2023-02-27T16:39:02.438Z,-0.40
2023-02-27T16:41:30.870Z,0.30
2023-02-27T16:44:00.663Z,-0.30
2023-02-27T16:46:29.443Z,-0.70
2023-02-27T16:49:14.208Z,0.90
2023-02-27T16:51:47.804Z,-0.80
2023-02-27T16:54:16.948Z,-0.50
2023-02-27T16:56:46.602Z,-0.50
2023-02-27T16:59:30.217Z,-1.10
2023-02-27T17:01:59.766Z,-0.50
2023-02-27T17:05:19.936Z,0.70
2023-02-27T17:07:48.835Z,-0.60
2023-02-27T17:10:18.744Z,-0.30
2023-02-27T17:12:48.052Z,-0.80
2023-02-27T17:15:18.633Z,-1.10
2023-02-27T17:17:47.307Z,-0.70
2023-02-27T17:20:16.322Z,-1.60
2023-02-27T17:22:46.056Z,-0.90
2023-02-27T17:25:15.329Z,-1.60
2023-02-27T17:27:44.572Z,0.10
2023-02-27T17:30:14.629Z,-1.20
2023-02-27T17:32:45.359Z,-1.30
2023-02-27T17:35:14.024Z,-0.60
2023-02-27T17:37:42.604Z,-0.80
2023-02-27T17:40:13.837Z,-1.50
2023-02-27T17:42:42.263Z,-1.40
2023-02-27T17:45:11.924Z,-1.10
2023-02-27T17:47:40.284Z,-1.30
2023-02-27T17:50:11.116Z,-1.30
2023-02-27T17:52:39.550Z,-1.10
2023-02-27T17:55:09.556Z,-1.10
2023-02-27T17:57:38.696Z,-1.10
2023-02-27T18:00:10.063Z,-0.40
2023-02-27T18:02:38.497Z,-1.00
2023-02-27T18:05:07.568Z,0.20
2023-02-27T18:07:38.830Z,-1.00
2023-02-27T18:10:09.119Z,-1.20
2023-02-27T18:12:37.946Z,-0.90
2023-02-27T18:15:07.483Z,-0.90
2023-02-27T18:17:35.913Z,-0.90
2023-02-27T18:20:05.987Z,-1.10
2023-02-27T18:22:34.446Z,-0.90
2023-02-27T18:25:04.495Z,-1.50
2023-02-27T18:27:33.011Z,-0.60
2023-02-27T18:30:03.244Z,-1.50
2023-02-27T18:32:31.608Z,-1.00
2023-02-27T18:35:00.139Z,-1.10
2023-02-27T18:37:28.580Z,0.30
2023-02-27T18:39:56.978Z,-0.80
2023-02-27T18:42:26.794Z,-1.30
2023-02-27T18:44:55.166Z,0.10
2023-02-27T18:47:23.616Z,-0.70
2023-02-27T18:49:52.222Z,0.10
2023-02-27T18:52:20.530Z,0.30
2023-02-27T18:54:49.198Z,0.50
2023-02-27T18:57:17.906Z,-0.50
2023-02-27T18:59:47.979Z,0.20
2023-02-27T19:02:17.645Z,-0.20
2023-02-27T19:04:46.054Z,-0.70
2023-02-27T19:07:14.607Z,0.30
2023-02-27T19:09:43.097Z,-0.80
2023-02-27T19:12:12.002Z,-0.90
2023-02-27T19:14:40.898Z,-0.60
2023-02-27T19:17:10.777Z,-1.00
2023-02-27T19:19:39.250Z,-0.80
2023-02-27T19:22:07.596Z,-0.60
2023-02-27T19:24:36.045Z,-0.30
2023-02-27T19:27:04.544Z,-0.60
2023-02-27T19:29:32.964Z,-0.70
2023-02-27T19:32:02.202Z,-0.60
2023-02-27T19:34:31.977Z,-0.60
2023-02-27T19:37:00.457Z,1.30
2023-02-27T19:39:28.943Z,-0.70
2023-02-27T19:41:57.672Z,-0.90
2023-02-27T19:44:26.748Z,-0.60
2023-02-27T19:46:55.278Z,-0.70
2023-02-27T19:49:23.649Z,-0.70
2023-02-27T19:51:53.504Z,-0.60
2023-02-27T19:54:21.943Z,-1.40
2023-02-27T19:56:50.412Z,0.60
2023-02-27T19:59:19.063Z,-0.10
2023-02-27T20:01:47.407Z,-0.80
2023-02-27T20:04:17.770Z,-0.80
2023-02-27T20:06:49.667Z,-0.50
2023-02-27T20:09:20.630Z,-0.70
2023-02-27T20:11:52.720Z,-1.00
2023-02-27T20:14:21.371Z,-0.70
2023-02-27T20:16:50.054Z,-0.60
2023-02-27T20:19:19.657Z,-0.70
2023-02-27T20:21:48.874Z,0.20
2023-02-27T20:24:19.632Z,0.10
2023-02-27T20:26:50.004Z,-0.50
2023-02-27T20:29:20.720Z,-1.00
2023-02-27T20:31:51.311Z,-0.80
2023-02-27T20:34:22.382Z,-0.50
2023-02-27T20:36:51.851Z,-0.90
2023-02-27T20:39:24.509Z,-0.90
2023-02-27T20:41:53.088Z,-0.40
2023-02-27T20:44:21.419Z,-1.60
2023-02-27T20:46:53.301Z,-1.30
2023-02-27T20:49:22.832Z,-1.20
2023-02-27T20:51:51.333Z,0.60
2023-02-27T20:54:21.509Z,-0.90
2023-02-27T20:56:52.967Z,-0.90
2023-02-27T20:59:22.498Z,-1.00
2023-02-27T21:01:52.598Z,-1.20
2023-02-27T21:04:22.853Z,-0.70
2023-02-27T21:06:51.446Z,0.30
2023-02-27T21:09:40.285Z,-1.00
2023-02-27T21:12:09.361Z,-1.10
2023-02-27T21:14:38.352Z,-1.00
2023-02-27T21:17:07.287Z,0.20
2023-02-27T21:19:36.915Z,-1.00
2023-02-27T21:22:05.320Z,-1.90
2023-02-27T21:24:35.023Z,-2.00
2023-02-27T21:27:04.861Z,-2.00
2023-02-27T21:29:33.279Z,-1.40
2023-02-27T21:32:02.168Z,-1.50
2023-02-27T21:34:31.805Z,-1.30
2023-02-27T21:37:03.101Z,-1.60
2023-02-27T21:39:31.491Z,-1.50
2023-02-27T21:42:00.296Z,-1.70
2023-02-27T21:44:30.003Z,-1.60
2023-02-27T21:46:58.371Z,-1.40
2023-02-27T21:49:28.089Z,-2.40
2023-02-27T21:51:57.275Z,-1.60
2023-02-27T21:54:26.152Z,-1.70
2023-02-27T21:56:54.893Z,-1.90
2023-02-27T21:59:23.230Z,-1.80
2023-02-27T22:02:08.366Z,-1.60
2023-02-27T22:04:36.946Z,-2.10
2023-02-27T22:07:05.374Z,-1.30
2023-02-27T22:09:33.841Z,-0.80
2023-02-27T22:12:02.263Z,-0.70
2023-02-27T22:14:30.656Z,-1.70
2023-02-27T22:17:00.280Z,-2.30
2023-02-27T22:19:31.593Z,-2.10
2023-02-27T22:21:59.895Z,-1.90
2023-02-27T22:24:28.290Z,-2.20
2023-02-27T22:26:56.559Z,-2.10
2023-02-27T22:29:24.949Z,-2.50
2023-02-27T22:31:54.374Z,-2.40
2023-02-27T22:34:22.792Z,-1.60
2023-02-27T22:36:53.162Z,-2.60
2023-02-27T22:39:21.943Z,-1.90
2023-02-27T22:41:50.578Z,-1.50
2023-02-27T22:44:19.118Z,-2.40
2023-02-27T22:46:49.465Z,-1.90
2023-02-27T22:49:19.917Z,-2.30
2023-02-27T22:51:50.955Z,-2.30
2023-02-27T22:54:22.549Z,-2.40
2023-02-27T22:56:52.579Z,-2.50
2023-02-27T22:59:20.994Z,-2.50
2023-02-27T23:01:49.472Z,-2.40
2023-02-27T23:04:18.819Z,-2.50
2023-02-27T23:06:47.344Z,-2.60
2023-02-27T23:09:17.822Z,-2.10
2023-02-27T23:11:47.909Z,-2.00
2023-02-27T23:14:16.770Z,-2.80
2023-02-27T23:16:46.701Z,-2.90
2023-02-27T23:19:16.725Z,-3.60
2023-02-27T23:21:45.190Z,-3.00
2023-02-27T23:24:15.090Z,-2.10
2023-02-27T23:26:45.394Z,-2.90
2023-02-27T23:29:15.838Z,-2.70
2023-02-27T23:31:44.222Z,-3.10
2023-02-27T23:34:12.700Z,-2.50
2023-02-27T23:36:41.126Z,-3.20
2023-02-27T23:39:09.925Z,-2.50
2023-02-27T23:41:38.307Z,-3.20
2023-02-27T23:44:06.818Z,-3.30
2023-02-27T23:46:37.386Z,-3.20
2023-02-27T23:49:05.830Z,-2.50
2023-02-27T23:51:34.446Z,-3.00
2023-02-27T23:54:03.641Z,-2.70
2023-02-27T23:56:32.430Z,-3.40
2023-02-27T23:59:03.652Z,-3.50
